aviador You're here:

K27K Decoded Metar

in
Report Time2018-02-22 06:35:00
UTC Time2018-02-22 06:40:23
Flight Rules ifr IFR
Wind050° at 09 kt
W.Rank050° ranks 12
Current wind is above 050° avg. (6.0)
Visibility3219 m
Phenomena:N/A
Clouds:Overcast 005 Hf
Expected CloudBase > 400 ft AGL from Temp-Dew spread
Ceiling500 ft
Temp07°C
Dew Point06°C (93% RH)
AAT2.8°C
QNH1028 hPa
Raw Report
METAR K27K 220635Z AUTO 05009KT 2SM OVC005 07/06 A3036 RMK AO1=

Extra information for K27K:More info

Social comments